Time;durP1;ratioP1;P1;durP2;ratioP2;P2;SDS_P1;SDS_P2;PMS_P1;PMS_P2;Temp;Humidity;BMP_temperature;BMP_pressure;BME280_temperature;BME280_humidity;BME280_pressure;Samples;Min_cycle;Max_cycle;Signal;HPM_P1;HPM_P2
2022/08/04 00:02:18;;;;;;;4.97;2.87;;;;;;;;;;5071682;28;21037;-49
2022/08/04 00:04:47;;;;;;;5.07;3.03;;;;;;;;;;5052762;28;20465;-49
2022/08/04 00:07:35;;;;;;;6.07;2.47;;;;;;;;;;5067587;28;20476;-49
2022/08/04 00:10:01;;;;;;;3.60;2.73;;;;;;;;;;5071787;28;20431;-49
2022/08/04 00:12:32;;;;;;;5.30;2.70;;;;;;;;;;5054947;28;20495;-49
2022/08/04 00:14:59;;;;;;;4.77;3.17;;;;;;;;;;5066668;28;20847;-49
2022/08/04 00:17:28;;;;;;;6.60;3.20;;;;;;;;;;5071782;28;20447;-49
2022/08/04 00:19:59;;;;;;;3.37;2.67;;;;;;;;;;5058827;28;20449;-50
2022/08/04 00:22:27;;;;;;;4.10;2.47;;;;;;;;;;5055574;28;20463;-49
2022/08/04 00:24:54;;;;;;;4.70;2.47;;;;;;;;;;5067377;28;20947;-49
2022/08/04 00:27:20;;;;;;;3.10;2.80;;;;;;;;;;5067931;28;20890;-50
2022/08/04 00:29:46;;;;;;;3.07;2.70;;;;;;;;;;5051548;28;20904;-49
2022/08/04 00:32:12;;;;;;;7.77;2.83;;;;;;;;;;5066258;28;20416;-49
2022/08/04 00:34:38;;;;;;;6.10;2.90;;;;;;;;;;5053536;28;20798;-49
2022/08/04 00:37:05;;;;;;;5.57;2.50;;;;;;;;;;5064531;28;20519;-49
2022/08/04 00:39:32;;;;;;;4.53;3.10;;;;;;;;;;5063415;28;20520;-49
2022/08/04 00:42:00;;;;;;;3.90;2.73;;;;;;;;;;5051861;28;20415;-50
2022/08/04 00:44:26;;;;;;;5.97;2.83;;;;;;;;;;5062449;28;20463;-49
2022/08/04 00:47:11;;;;;;;3.23;2.93;;;;;;;;;;5068532;28;20490;-49
2022/08/04 00:49:37;;;;;;;2.90;2.70;;;;;;;;;;5052066;28;20885;-49
2022/08/04 00:52:11;;;;;;;6.53;3.50;;;;;;;;;;5063524;28;20419;-49
2022/08/04 00:54:40;;;;;;;3.97;2.93;;;;;;;;;;5061334;28;20416;-49
2022/08/04 00:57:23;;;;;;;6.67;3.43;;;;;;;;;;5071741;28;20443;-49
2022/08/04 00:59:49;;;;;;;4.40;3.20;;;;;;;;;;5061815;28;20420;-50
2022/08/04 01:02:21;;;;;;;5.27;2.73;;;;;;;;;;5050882;28;20454;-50
2022/08/04 01:05:02;;;;;;;3.30;2.83;;;;;;;;;;5068838;28;20451;-50
2022/08/04 01:07:47;;;;;;;4.70;2.83;;;;;;;;;;5071522;28;20420;-49
2022/08/04 01:10:16;;;;;;;6.63;2.80;;;;;;;;;;5050841;28;20440;-49
2022/08/04 01:12:42;;;;;;;4.43;2.83;;;;;;;;;;5052103;28;20409;-50
2022/08/04 01:15:17;;;;;;;5.97;2.80;;;;;;;;;;5063442;28;20421;-49
2022/08/04 01:17:50;;;;;;;4.77;2.70;;;;;;;;;;5058613;28;20427;-49
2022/08/04 01:20:20;;;;;;;8.80;3.10;;;;;;;;;;5060026;28;20496;-50
2022/08/04 01:23:04;;;;;;;3.83;2.70;;;;;;;;;;5069122;28;20467;-49
2022/08/04 01:25:42;;;;;;;3.03;2.70;;;;;;;;;;5050012;28;20450;-50
2022/08/04 01:28:20;;;;;;;6.03;2.43;;;;;;;;;;5058639;28;20419;-50
2022/08/04 01:30:49;;;;;;;4.07;3.13;;;;;;;;;;5073871;28;20487;-49
2022/08/04 01:33:16;;;;;;;3.77;3.03;;;;;;;;;;5068433;28;20411;-50
2022/08/04 01:35:42;;;;;;;3.80;2.57;;;;;;;;;;5073833;28;20436;-49
2022/08/04 01:38:11;;;;;;;6.00;2.87;;;;;;;;;;5064837;28;20477;-49
2022/08/04 01:40:37;;;;;;;4.83;3.40;;;;;;;;;;5054508;28;20420;-50
2022/08/04 01:43:04;;;;;;;7.10;3.23;;;;;;;;;;5064812;28;20981;-50
2022/08/04 01:45:30;;;;;;;2.87;2.63;;;;;;;;;;5053687;28;20990;-49
2022/08/04 01:47:57;;;;;;;5.30;3.20;;;;;;;;;;5068010;28;20515;-50
2022/08/04 01:50:25;;;;;;;3.60;3.30;;;;;;;;;;5065878;28;20504;-49
2022/08/04 01:52:52;;;;;;;8.90;2.70;;;;;;;;;;5055991;28;20568;-50
2022/08/04 01:55:19;;;;;;;4.07;3.27;;;;;;;;;;5055043;28;20412;-50
2022/08/04 01:57:46;;;;;;;7.53;3.13;;;;;;;;;;5061519;28;20460;-49
2022/08/04 02:00:13;;;;;;;3.80;2.73;;;;;;;;;;5073858;28;20878;-49
2022/08/04 02:02:39;;;;;;;4.43;3.13;;;;;;;;;;5069373;28;20792;-50
2022/08/04 02:05:05;;;;;;;5.90;3.10;;;;;;;;;;5074333;28;20961;-49
2022/08/04 02:07:36;;;;;;;3.33;2.90;;;;;;;;;;5069496;28;20931;-49
2022/08/04 02:10:07;;;;;;;6.97;3.77;;;;;;;;;;5054127;28;20928;-49
2022/08/04 02:12:46;;;;;;;5.20;3.63;;;;;;;;;;5063923;28;20419;-50
2022/08/04 02:15:32;;;;;;;4.13;3.20;;;;;;;;;;5058521;28;21009;-49
2022/08/04 02:18:08;;;;;;;4.83;3.30;;;;;;;;;;5054404;28;20980;-49
2022/08/04 02:20:37;;;;;;;4.33;3.27;;;;;;;;;;5067488;28;20446;-50
2022/08/04 02:23:05;;;;;;;4.80;3.83;;;;;;;;;;5057712;28;20905;-49
2022/08/04 02:25:37;;;;;;;6.20;3.20;;;;;;;;;;5070413;28;20462;-49
2022/08/04 02:28:12;;;;;;;6.03;3.47;;;;;;;;;;5054249;28;20510;-49
2022/08/04 02:30:50;;;;;;;3.63;3.33;;;;;;;;;;5056586;28;20423;-49
2022/08/04 02:33:19;;;;;;;3.53;3.20;;;;;;;;;;5069117;28;20422;-49
2022/08/04 02:35:45;;;;;;;5.33;3.83;;;;;;;;;;5070956;28;20478;-49
2022/08/04 02:38:32;;;;;;;4.40;3.03;;;;;;;;;;5064098;28;20426;-49
2022/08/04 02:41:00;;;;;;;4.23;3.27;;;;;;;;;;5052733;28;20397;-49
2022/08/04 02:43:28;;;;;;;7.27;3.80;;;;;;;;;;5064952;28;20485;-50
2022/08/04 02:45:56;;;;;;;5.13;3.50;;;;;;;;;;5053884;28;20475;-49
2022/08/04 02:48:24;;;;;;;6.70;4.10;;;;;;;;;;5069453;28;20421;-50
2022/08/04 02:50:50;;;;;;;4.60;3.17;;;;;;;;;;5069800;28;20486;-49
2022/08/04 02:53:17;;;;;;;5.10;3.50;;;;;;;;;;5057791;28;20903;-49
2022/08/04 02:55:44;;;;;;;3.97;3.37;;;;;;;;;;5065628;28;20489;-49
2022/08/04 02:58:12;;;;;;;9.13;3.57;;;;;;;;;;5053923;28;20422;-49
2022/08/04 03:00:38;;;;;;;3.50;3.20;;;;;;;;;;5055607;28;20420;-49
2022/08/04 03:03:22;;;;;;;3.97;3.50;;;;;;;;;;5058898;28;20449;-49
2022/08/04 03:06:09;;;;;;;7.73;4.13;;;;;;;;;;5053608;28;20462;-49
2022/08/04 03:08:38;;;;;;;5.03;3.17;;;;;;;;;;5069318;28;20418;-49
2022/08/04 03:11:07;;;;;;;5.03;3.83;;;;;;;;;;5069286;28;20415;-49
2022/08/04 03:13:35;;;;;;;4.47;4.03;;;;;;;;;;5053781;28;20412;-49
2022/08/04 03:16:20;;;;;;;7.70;4.57;;;;;;;;;;5054565;28;20458;-49
2022/08/04 03:18:58;;;;;;;4.80;3.90;;;;;;;;;;5068478;28;20432;-49
2022/08/04 03:21:43;;;;;;;5.83;3.57;;;;;;;;;;5056425;28;20495;-49
2022/08/04 03:24:27;;;;;;;7.03;3.77;;;;;;;;;;5060083;28;20450;-50
2022/08/04 03:27:12;;;;;;;4.40;3.77;;;;;;;;;;5063041;28;20467;-49
2022/08/04 03:29:54;;;;;;;9.63;3.87;;;;;;;;;;5053025;28;20411;-49
2022/08/04 03:32:38;;;;;;;6.07;3.60;;;;;;;;;;5054543;28;20829;-50
2022/08/04 03:35:23;;;;;;;5.87;3.43;;;;;;;;;;5053162;28;20917;-49
2022/08/04 03:37:57;;;;;;;5.93;3.40;;;;;;;;;;5068226;28;20425;-49
2022/08/04 03:40:23;;;;;;;6.10;3.50;;;;;;;;;;5066821;28;20427;-49
2022/08/04 03:43:17;;;;;;;6.43;4.10;;;;;;;;;;5066695;28;20412;-49
2022/08/04 03:45:49;;;;;;;3.87;3.57;;;;;;;;;;5053345;28;20538;-49
2022/08/04 03:48:24;;;;;;;6.27;3.80;;;;;;;;;;5066268;28;20412;-49
2022/08/04 03:53:52;;;;;;;4.10;3.70;;;;;;;;;;5053362;28;21032;-49
2022/08/04 03:56:18;;;;;;;4.93;3.40;;;;;;;;;;5052682;28;20478;-49
2022/08/04 03:58:44;;;;;;;7.30;3.93;;;;;;;;;;5057352;28;20444;-49
2022/08/04 04:01:10;;;;;;;4.57;4.00;;;;;;;;;;5072068;28;20392;-49
2022/08/04 04:03:55;;;;;;;7.80;4.47;;;;;;;;;;5072346;28;20423;-49
2022/08/04 04:06:30;;;;;;;3.60;3.30;;;;;;;;;;5072802;28;20441;-49
2022/08/04 04:09:08;;;;;;;5.60;3.83;;;;;;;;;;5072778;28;20765;-50
2022/08/04 04:11:42;;;;;;;7.70;3.73;;;;;;;;;;5071976;28;20422;-50
2022/08/04 04:14:17;;;;;;;7.87;4.57;;;;;;;;;;5072406;28;20410;-49
2022/08/04 04:16:55;;;;;;;6.10;3.67;;;;;;;;;;5067998;28;20457;-50
2022/08/04 04:19:33;;;;;;;5.27;3.97;;;;;;;;;;5052502;28;20395;-49
2022/08/04 04:22:02;;;;;;;5.17;4.23;;;;;;;;;;5051951;28;20450;-50
2022/08/04 04:24:40;;;;;;;11.30;4.67;;;;;;;;;;5052139;28;20459;-49
2022/08/04 04:27:28;;;;;;;4.90;3.67;;;;;;;;;;5052282;28;20508;-49
2022/08/04 04:30:08;;;;;;;4.87;3.97;;;;;;;;;;5051510;28;20968;-50
2022/08/04 04:32:52;;;;;;;6.40;3.80;;;;;;;;;;5052209;28;20429;-50
2022/08/04 04:35:18;;;;;;;7.43;4.23;;;;;;;;;;5052076;28;20404;-50
2022/08/04 04:37:56;;;;;;;4.50;3.80;;;;;;;;;;5052089;28;20395;-50
2022/08/04 04:40:33;;;;;;;4.83;3.63;;;;;;;;;;5051408;28;20493;-50
2022/08/04 04:43:02;;;;;;;3.93;3.50;;;;;;;;;;5052124;28;20873;-50
2022/08/04 04:45:28;;;;;;;4.63;4.20;;;;;;;;;;5051756;28;21023;-50
2022/08/04 04:47:56;;;;;;;13.83;4.40;;;;;;;;;;5052625;28;20427;-50
2022/08/04 04:50:30;;;;;;;5.40;4.33;;;;;;;;;;5051226;28;20568;-49
2022/08/04 04:53:16;;;;;;;4.97;3.30;;;;;;;;;;5051927;28;20884;-50
2022/08/04 04:55:45;;;;;;;5.40;3.70;;;;;;;;;;5051334;28;20954;-50
2022/08/04 04:58:12;;;;;;;6.53;3.60;;;;;;;;;;5051869;28;20422;-50
2022/08/04 05:00:49;;;;;;;9.97;4.20;;;;;;;;;;5051085;28;20961;-50
2022/08/04 05:03:18;;;;;;;6.13;3.90;;;;;;;;;;5051829;28;20417;-50
2022/08/04 05:05:50;;;;;;;8.07;3.53;;;;;;;;;;5051241;28;20464;-50
2022/08/04 05:08:35;;;;;;;9.70;4.63;;;;;;;;;;5051626;28;20414;-50
2022/08/04 05:11:04;;;;;;;7.83;4.30;;;;;;;;;;5051091;28;20389;-50
2022/08/04 05:13:30;;;;;;;4.17;3.80;;;;;;;;;;5051719;28;20957;-50
2022/08/04 05:15:59;;;;;;;5.00;4.10;;;;;;;;;;5051623;28;20503;-49
2022/08/04 05:18:30;;;;;;;10.30;4.30;;;;;;;;;;5051503;28;20467;-50
2022/08/04 05:21:06;;;;;;;5.33;4.17;;;;;;;;;;5063549;28;20431;-50
2022/08/04 05:23:32;;;;;;;5.20;3.90;;;;;;;;;;5071940;28;20398;-50
2022/08/04 05:26:00;;;;;;;5.97;4.30;;;;;;;;;;5071877;28;20528;-50
2022/08/04 05:28:28;;;;;;;7.13;4.03;;;;;;;;;;5071580;28;20402;-50
2022/08/04 05:30:59;;;;;;;6.47;4.40;;;;;;;;;;5070834;28;20400;-50
2022/08/04 05:33:27;;;;;;;4.17;3.77;;;;;;;;;;5071414;28;20420;-49
2022/08/04 05:35:55;;;;;;;11.00;4.20;;;;;;;;;;5071464;28;20474;-50
2022/08/04 05:38:23;;;;;;;10.73;3.80;;;;;;;;;;5071589;28;20406;-50
2022/08/04 05:40:49;;;;;;;7.33;3.40;;;;;;;;;;5070742;28;20436;-50
2022/08/04 05:43:16;;;;;;;4.70;3.80;;;;;;;;;;5071865;28;20902;-50
2022/08/04 05:45:43;;;;;;;11.17;3.27;;;;;;;;;;5071332;28;20995;-50
2022/08/04 05:48:10;;;;;;;7.10;4.07;;;;;;;;;;5056099;28;20434;-50
2022/08/04 05:50:37;;;;;;;3.73;3.40;;;;;;;;;;5050249;28;20458;-50
2022/08/04 05:53:03;;;;;;;6.30;3.63;;;;;;;;;;5051180;28;20869;-50
2022/08/04 05:55:29;;;;;;;8.70;4.03;;;;;;;;;;5050678;28;20409;-50
2022/08/04 05:57:59;;;;;;;3.63;3.43;;;;;;;;;;5050774;28;20402;-51
2022/08/04 06:00:26;;;;;;;4.93;3.83;;;;;;;;;;5050002;28;20413;-50
2022/08/04 06:02:52;;;;;;;4.50;3.70;;;;;;;;;;5050725;28;20910;-50
2022/08/04 06:05:18;;;;;;;4.20;3.13;;;;;;;;;;5050547;28;20457;-50
2022/08/04 06:07:45;;;;;;;4.77;3.43;;;;;;;;;;5050746;28;20428;-50
2022/08/04 06:10:11;;;;;;;3.43;3.10;;;;;;;;;;5049889;28;20398;-50
2022/08/04 06:12:43;;;;;;;8.10;4.10;;;;;;;;;;5050702;28;20401;-50
2022/08/04 06:15:12;;;;;;;5.87;3.50;;;;;;;;;;5050554;28;20407;-50
2022/08/04 06:17:39;;;;;;;3.97;3.47;;;;;;;;;;5052752;28;20453;-50
2022/08/04 06:20:07;;;;;;;4.63;3.00;;;;;;;;;;5053943;28;20406;-49
2022/08/04 06:22:33;;;;;;;6.30;3.30;;;;;;;;;;5054724;28;21007;-50
2022/08/04 06:25:00;;;;;;;4.77;3.87;;;;;;;;;;5054474;28;20455;-51
2022/08/04 06:27:28;;;;;;;3.30;3.00;;;;;;;;;;5054440;28;20921;-50
2022/08/04 06:29:54;;;;;;;6.70;3.23;;;;;;;;;;5053870;28;20763;-50
2022/08/04 06:32:29;;;;;;;3.40;3.20;;;;;;;;;;5054512;28;20952;-49
2022/08/04 06:34:58;;;;;;;4.20;3.33;;;;;;;;;;5054429;28;20396;-50
2022/08/04 06:37:25;;;;;;;3.37;3.07;;;;;;;;;;5054434;28;20456;-50
2022/08/04 06:39:52;;;;;;;4.20;3.40;;;;;;;;;;5053561;28;20427;-50
2022/08/04 06:42:20;;;;;;;2.80;2.60;;;;;;;;;;5054345;28;20407;-50
2022/08/04 06:44:48;;;;;;;5.50;2.87;;;;;;;;;;5054186;28;20460;-50
2022/08/04 06:47:18;;;;;;;5.30;3.10;;;;;;;;;;5054001;28;20423;-50
2022/08/04 06:49:44;;;;;;;3.17;2.97;;;;;;;;;;5053041;28;20438;-50
2022/08/04 06:52:16;;;;;;;3.53;3.23;;;;;;;;;;5053868;28;20836;-50
2022/08/04 06:54:42;;;;;;;3.87;2.80;;;;;;;;;;5053547;28;20958;-50
2022/08/04 06:57:08;;;;;;;10.40;3.23;;;;;;;;;;5053806;28;20480;-50
2022/08/04 06:59:34;;;;;;;6.57;2.77;;;;;;;;;;5053628;28;20415;-50
2022/08/04 07:02:01;;;;;;;6.90;3.30;;;;;;;;;;5053491;28;20452;-50
2022/08/04 07:04:27;;;;;;;3.00;2.57;;;;;;;;;;5053854;28;20476;-49
2022/08/04 07:06:53;;;;;;;2.53;2.33;;;;;;;;;;5053859;28;20445;-50
2022/08/04 07:09:19;;;;;;;3.03;2.83;;;;;;;;;;5053660;28;20393;-51
2022/08/04 07:11:46;;;;;;;4.70;3.60;;;;;;;;;;5053160;28;20949;-51
2022/08/04 07:14:12;;;;;;;3.30;3.00;;;;;;;;;;5053896;28;20440;-50
2022/08/04 07:16:40;;;;;;;2.63;2.43;;;;;;;;;;5053163;28;20800;-50
2022/08/04 07:19:06;;;;;;;3.43;2.40;;;;;;;;;;5053547;28;20401;-50
2022/08/04 07:21:34;;;;;;;6.87;3.30;;;;;;;;;;5052941;28;20428;-50
2022/08/04 07:24:00;;;;;;;3.30;2.80;;;;;;;;;;5053534;28;20463;-50
2022/08/04 07:26:27;;;;;;;2.77;2.60;;;;;;;;;;5053457;28;20421;-50
2022/08/04 07:28:53;;;;;;;3.47;3.07;;;;;;;;;;5053170;28;20401;-50
2022/08/04 07:31:22;;;;;;;2.40;2.20;;;;;;;;;;5052693;28;20750;-50
2022/08/04 07:33:48;;;;;;;4.13;2.20;;;;;;;;;;5053305;28;20401;-50
2022/08/04 07:36:15;;;;;;;4.10;2.97;;;;;;;;;;5052528;28;20428;-50
2022/08/04 07:38:42;;;;;;;3.33;2.80;;;;;;;;;;5053215;28;20432;-50
2022/08/04 07:41:08;;;;;;;5.43;2.63;;;;;;;;;;5052603;28;20397;-50
2022/08/04 07:43:35;;;;;;;3.57;3.13;;;;;;;;;;5053169;28;21002;-50
2022/08/04 07:46:01;;;;;;;2.67;2.47;;;;;;;;;;5053094;28;20471;-50
2022/08/04 07:48:28;;;;;;;2.90;2.60;;;;;;;;;;5053393;28;20864;-50
2022/08/04 07:50:54;;;;;;;4.17;2.90;;;;;;;;;;5068787;28;20420;-50
2022/08/04 07:53:22;;;;;;;2.83;2.63;;;;;;;;;;5072946;28;20413;-50
2022/08/04 07:55:48;;;;;;;3.87;3.53;;;;;;;;;;5073315;28;20440;-50
2022/08/04 07:58:14;;;;;;;3.27;2.93;;;;;;;;;;5072856;28;20405;-50
2022/08/04 08:00:40;;;;;;;2.80;2.60;;;;;;;;;;5072178;28;20404;-50
2022/08/04 08:03:07;;;;;;;3.37;2.67;;;;;;;;;;5072731;28;20404;-51
2022/08/04 08:05:33;;;;;;;2.40;2.10;;;;;;;;;;5072435;28;20448;-50
2022/08/04 08:07:59;;;;;;;4.20;2.73;;;;;;;;;;5072803;28;20450;-51
2022/08/04 08:10:25;;;;;;;2.40;2.20;;;;;;;;;;5071915;28;20400;-50
2022/08/04 08:12:52;;;;;;;3.13;2.93;;;;;;;;;;5072557;28;20404;-51
2022/08/04 08:15:19;;;;;;;3.17;2.23;;;;;;;;;;5072333;28;20408;-51
2022/08/04 08:17:45;;;;;;;3.30;2.40;;;;;;;;;;5071007;28;20455;-50
2022/08/04 08:20:11;;;;;;;2.70;2.50;;;;;;;;;;5071717;28;20439;-51
2022/08/04 08:22:37;;;;;;;1.80;1.70;;;;;;;;;;5071920;28;20823;-51
2022/08/04 08:25:07;;;;;;;2.30;2.20;;;;;;;;;;5072396;28;20452;-50
2022/08/04 08:27:33;;;;;;;2.10;2.00;;;;;;;;;;5072237;28;20421;-52
2022/08/04 08:29:59;;;;;;;2.13;1.93;;;;;;;;;;5071642;28;20443;-51
2022/08/04 08:32:25;;;;;;;2.30;2.20;;;;;;;;;;5072393;28;20435;-51
2022/08/04 08:34:51;;;;;;;2.20;2.00;;;;;;;;;;5072168;28;20401;-51
2022/08/04 08:37:23;;;;;;;2.13;1.80;;;;;;;;;;5072110;28;20460;-51
2022/08/04 08:40:09;;;;;;;3.20;2.17;;;;;;;;;;5070742;28;20411;-52
2022/08/04 08:42:54;;;;;;;2.43;2.23;;;;;;;;;;5067974;28;20427;-52
2022/08/04 08:45:39;;;;;;;1.83;1.73;;;;;;;;;;5058032;28;20522;-51
2022/08/04 08:48:11;;;;;;;1.80;1.70;;;;;;;;;;5051982;28;20432;-51
2022/08/04 08:50:55;;;;;;;1.93;1.83;;;;;;;;;;5051215;28;20397;-51
2022/08/04 08:53:40;;;;;;;2.40;2.20;;;;;;;;;;5051884;28;20408;-51
2022/08/04 08:56:15;;;;;;;4.13;1.60;;;;;;;;;;5051725;28;20440;-50
2022/08/04 08:59:01;;;;;;;2.60;2.00;;;;;;;;;;5051830;28;20496;-51
2022/08/04 09:01:27;;;;;;;1.90;1.80;;;;;;;;;;5043862;28;20499;-51
2022/08/04 09:04:02;;;;;;;2.13;1.80;;;;;;;;;;5051724;28;20488;-52
2022/08/04 09:06:44;;;;;;;2.00;1.83;;;;;;;;;;5050401;28;20190;-51
2022/08/04 09:09:29;;;;;;;1.87;1.73;;;;;;;;;;5051655;28;20404;-51
2022/08/04 09:12:05;;;;;;;2.33;1.90;;;;;;;;;;5051095;28;20393;-52
2022/08/04 09:14:41;;;;;;;1.77;1.67;;;;;;;;;;5051687;28;20504;-51
2022/08/04 09:17:13;;;;;;;3.23;2.00;;;;;;;;;;5051706;28;20413;-51
2022/08/04 09:19:42;;;;;;;3.33;1.50;;;;;;;;;;5051499;28;20397;-52
2022/08/04 09:22:08;;;;;;;3.30;1.93;;;;;;;;;;5051662;28;20889;-51
2022/08/04 09:24:52;;;;;;;1.77;1.40;;;;;;;;;;5051448;28;20472;-51
2022/08/04 09:27:19;;;;;;;3.20;1.80;;;;;;;;;;5051554;28;20413;-51
2022/08/04 09:29:48;;;;;;;1.83;1.60;;;;;;;;;;5050869;28;20881;-51
2022/08/04 09:32:30;;;;;;;2.07;1.87;;;;;;;;;;5051531;28;20397;-51
2022/08/04 09:35:14;;;;;;;1.93;1.60;;;;;;;;;;5051491;28;20409;-51
2022/08/04 09:37:52;;;;;;;2.00;1.80;;;;;;;;;;5051523;28;20408;-51
2022/08/04 09:40:26;;;;;;;2.60;2.00;;;;;;;;;;5050822;28;20853;-51
2022/08/04 09:43:31;;;;;;;1.83;1.73;;;;;;;;;;5051501;28;20435;-51
2022/08/04 09:45:57;;;;;;;1.93;1.70;;;;;;;;;;5028030;28;20507;-51
2022/08/04 09:48:41;;;;;;;2.63;1.50;;;;;;;;;;5049404;28;20927;-51
2022/08/04 09:51:13;;;;;;;1.97;1.63;;;;;;;;;;5063588;28;20181;-52
2022/08/04 09:53:52;;;;;;;2.83;1.70;;;;;;;;;;5074404;28;20911;-51
2022/08/04 09:56:24;;;;;;;1.60;1.50;;;;;;;;;;5075143;28;20446;-51
2022/08/04 09:58:53;;;;;;;1.97;1.60;;;;;;;;;;5075288;28;20479;-51
2022/08/04 10:01:21;;;;;;;1.57;1.47;;;;;;;;;;5075666;28;20465;-51
2022/08/04 10:03:55;;;;;;;2.17;1.60;;;;;;;;;;5095157;28;20402;-51
2022/08/04 10:06:27;;;;;;;4.03;2.00;;;;;;;;;;5094864;28;20450;-51
2022/08/04 10:08:53;;;;;;;1.93;1.60;;;;;;;;;;5095080;28;20903;-51
2022/08/04 10:11:38;;;;;;;8.30;2.10;;;;;;;;;;5094451;28;20992;-51
2022/08/04 10:14:17;;;;;;;1.97;1.53;;;;;;;;;;5091052;28;20244;-51
2022/08/04 10:16:47;;;;;;;1.60;1.50;;;;;;;;;;5073471;28;20448;-51
2022/08/04 10:19:21;;;;;;;2.20;1.60;;;;;;;;;;5074546;28;20400;-51
2022/08/04 10:21:50;;;;;;;1.37;1.27;;;;;;;;;;5074152;28;20392;-53
2022/08/04 10:24:28;;;;;;;4.43;1.80;;;;;;;;;;5074411;28;20765;-53
2022/08/04 10:26:59;;;;;;;2.27;1.60;;;;;;;;;;5074404;28;20918;-52
2022/08/04 10:29:36;;;;;;;2.03;1.50;;;;;;;;;;5074165;28;20412;-54
2022/08/04 10:32:11;;;;;;;2.53;1.63;;;;;;;;;;5074016;28;20396;-53
2022/08/04 10:34:50;;;;;;;2.90;1.40;;;;;;;;;;5073151;28;20421;-53
2022/08/04 10:37:19;;;;;;;3.87;1.40;;;;;;;;;;5074272;28;20428;-53
2022/08/04 10:42:44;;;;;;;1.40;1.30;;;;;;;;;;5074132;28;20391;-53
2022/08/04 10:45:13;;;;;;;2.80;1.50;;;;;;;;;;5071029;28;20821;-52
2022/08/04 10:47:43;;;;;;;3.00;1.70;;;;;;;;;;5074083;28;20416;-53
2022/08/04 10:50:11;;;;;;;1.50;1.40;;;;;;;;;;5073145;28;20940;-53
2022/08/04 10:52:53;;;;;;;2.43;1.80;;;;;;;;;;5073902;28;20938;-53
2022/08/04 10:55:27;;;;;;;1.60;1.50;;;;;;;;;;5073791;28;20806;-52
2022/08/04 10:58:01;;;;;;;1.77;1.50;;;;;;;;;;5073977;28;20404;-53
2022/08/04 11:00:29;;;;;;;2.60;1.50;;;;;;;;;;5072912;28;20404;-53
2022/08/04 11:03:10;;;;;;;2.13;1.70;;;;;;;;;;5073105;28;20801;-53
2022/08/04 11:05:38;;;;;;;4.23;1.70;;;;;;;;;;5073655;28;20447;-53
2022/08/04 11:08:10;;;;;;;4.20;2.13;;;;;;;;;;5073752;28;20890;-52
2022/08/04 11:10:40;;;;;;;4.23;2.03;;;;;;;;;;5072928;28;20817;-53
2022/08/04 11:13:10;;;;;;;1.93;1.53;;;;;;;;;;5073501;28;20872;-53
2022/08/04 11:15:54;;;;;;;3.50;1.60;;;;;;;;;;5071048;28;20955;-53
2022/08/04 11:18:26;;;;;;;2.90;1.73;;;;;;;;;;5073541;28;20404;-53
2022/08/04 11:20:58;;;;;;;1.60;1.50;;;;;;;;;;5072624;28;20424;-52
2022/08/04 11:23:28;;;;;;;2.27;1.90;;;;;;;;;;5073287;28;20405;-53
2022/08/04 11:26:05;;;;;;;2.10;1.90;;;;;;;;;;5073218;28;20456;-52
2022/08/04 11:28:31;;;;;;;3.27;1.60;;;;;;;;;;5073519;28;20392;-52
2022/08/04 11:30:57;;;;;;;2.30;2.20;;;;;;;;;;5072563;28;20465;-53
2022/08/04 11:33:31;;;;;;;2.50;2.20;;;;;;;;;;5071386;28;20205;-53
2022/08/04 11:36:02;;;;;;;8.63;2.07;;;;;;;;;;5070405;28;20216;-53
2022/08/04 11:38:32;;;;;;;5.93;2.13;;;;;;;;;;5073163;28;20871;-52
2022/08/04 11:41:00;;;;;;;3.07;1.90;;;;;;;;;;5072252;28;20892;-52
2022/08/04 11:43:32;;;;;;;1.97;1.87;;;;;;;;;;5072987;28;20887;-53
2022/08/04 11:46:01;;;;;;;3.87;1.80;;;;;;;;;;5072823;28;20464;-52
2022/08/04 11:48:31;;;;;;;1.87;1.53;;;;;;;;;;5072800;28;20418;-52
2022/08/04 11:51:01;;;;;;;3.43;2.00;;;;;;;;;;5072019;28;20484;-53
2022/08/04 11:53:28;;;;;;;2.70;1.80;;;;;;;;;;5072785;28;20812;-53
2022/08/04 11:56:00;;;;;;;8.57;3.07;;;;;;;;;;5067455;28;20539;-52
2022/08/04 11:58:26;;;;;;;3.73;1.70;;;;;;;;;;5052693;28;20463;-52
2022/08/04 12:01:03;;;;;;;4.10;2.27;;;;;;;;;;5051790;28;20397;-52
2022/08/04 12:03:44;;;;;;;2.47;2.30;;;;;;;;;;5052829;28;20429;-52
2022/08/04 12:06:21;;;;;;;4.60;2.33;;;;;;;;;;5068756;28;20472;-52
2022/08/04 12:09:03;;;;;;;4.80;2.30;;;;;;;;;;5073043;28;20450;-52
2022/08/04 12:11:35;;;;;;;2.33;2.20;;;;;;;;;;5072107;28;20756;-52
2022/08/04 12:14:09;;;;;;;3.40;2.00;;;;;;;;;;5071635;28;20481;-52
2022/08/04 12:16:38;;;;;;;3.73;2.30;;;;;;;;;;5072445;28;20412;-53
2022/08/04 12:19:08;;;;;;;2.47;1.80;;;;;;;;;;5072331;28;20432;-52
2022/08/04 12:21:35;;;;;;;3.47;2.40;;;;;;;;;;5071834;28;20416;-52
2022/08/04 12:24:03;;;;;;;4.73;2.90;;;;;;;;;;5072233;28;20936;-52
2022/08/04 12:26:34;;;;;;;2.87;2.67;;;;;;;;;;5072262;28;20429;-52
2022/08/04 12:29:01;;;;;;;5.83;2.23;;;;;;;;;;5072251;28;20389;-52
2022/08/04 12:31:29;;;;;;;4.00;2.43;;;;;;;;;;5071627;28;20415;-52
2022/08/04 12:33:58;;;;;;;2.67;2.47;;;;;;;;;;5067006;28;20425;-52
2022/08/04 12:36:27;;;;;;;5.90;2.20;;;;;;;;;;5054332;28;20441;-52
2022/08/04 12:39:09;;;;;;;2.20;2.10;;;;;;;;;;5051954;28;20780;-52
2022/08/04 12:41:40;;;;;;;6.10;2.40;;;;;;;;;;5051238;28;20450;-52
2022/08/04 12:44:08;;;;;;;3.80;2.30;;;;;;;;;;5051834;28;20392;-52
2022/08/04 12:46:35;;;;;;;2.60;2.40;;;;;;;;;;5051764;28;20512;-52
2022/08/04 12:49:03;;;;;;;2.23;2.03;;;;;;;;;;5051706;28;20413;-53
2022/08/04 12:51:35;;;;;;;2.30;1.80;;;;;;;;;;5051148;28;20401;-52
2022/08/04 12:54:02;;;;;;;5.03;2.50;;;;;;;;;;5051787;28;20535;-53
2022/08/04 12:56:29;;;;;;;2.03;1.90;;;;;;;;;;5051788;28;20967;-52
2022/08/04 12:59:01;;;;;;;2.20;1.70;;;;;;;;;;5050395;28;20393;-52
2022/08/04 13:01:28;;;;;;;2.60;2.40;;;;;;;;;;5049319;28;20409;-52
2022/08/04 13:04:00;;;;;;;4.00;2.40;;;;;;;;;;5051318;28;20402;-52
2022/08/04 13:06:28;;;;;;;2.50;2.30;;;;;;;;;;5052319;28;20467;-53
2022/08/04 13:08:55;;;;;;;2.43;2.23;;;;;;;;;;5071220;28;20409;-51
2022/08/04 13:11:21;;;;;;;2.60;2.33;;;;;;;;;;5070911;28;20407;-53
2022/08/04 13:13:50;;;;;;;3.27;2.23;;;;;;;;;;5071432;28;20487;-52
2022/08/04 13:16:16;;;;;;;2.17;1.97;;;;;;;;;;5071695;28;20467;-52
2022/08/04 13:18:47;;;;;;;5.33;2.10;;;;;;;;;;5071541;28;20436;-52
2022/08/04 13:21:14;;;;;;;2.73;2.53;;;;;;;;;;5070781;28;20408;-52
2022/08/04 13:23:41;;;;;;;2.13;1.93;;;;;;;;;;5071158;28;20767;-52
2022/08/04 13:26:08;;;;;;;4.67;2.30;;;;;;;;;;5064800;28;20460;-52
2022/08/04 13:28:34;;;;;;;3.93;2.30;;;;;;;;;;5055319;28;20408;-52
2022/08/04 13:31:01;;;;;;;6.03;2.10;;;;;;;;;;5054414;28;20417;-52
2022/08/04 13:33:38;;;;;;;4.93;2.77;;;;;;;;;;5056288;28;20420;-53
2022/08/04 13:36:06;;;;;;;3.23;2.30;;;;;;;;;;5074060;28;20426;-52
2022/08/04 13:38:34;;;;;;;3.30;2.70;;;;;;;;;;5075023;28;20595;-52
2022/08/04 13:41:01;;;;;;;4.30;3.17;;;;;;;;;;5072611;28;20491;-52
2022/08/04 13:43:39;;;;;;;4.30;2.63;;;;;;;;;;5074083;28;20427;-53
2022/08/04 13:46:06;;;;;;;2.87;2.40;;;;;;;;;;5075111;28;20546;-52
2022/08/04 13:48:39;;;;;;;2.47;2.27;;;;;;;;;;5075529;28;20855;-52
2022/08/04 13:51:06;;;;;;;4.90;2.73;;;;;;;;;;5074376;28;20416;-52
2022/08/04 13:53:33;;;;;;;2.93;2.70;;;;;;;;;;5075023;28;20404;-52
2022/08/04 13:56:00;;;;;;;2.60;2.40;;;;;;;;;;5075568;28;20442;-52
2022/08/04 13:58:27;;;;;;;6.87;3.03;;;;;;;;;;5074897;28;20430;-52
2022/08/04 14:00:54;;;;;;;2.87;2.00;;;;;;;;;;5074226;28;20404;-53
2022/08/04 14:03:33;;;;;;;4.70;2.30;;;;;;;;;;5072233;28;20431;-53
2022/08/04 14:06:20;;;;;;;2.90;2.13;;;;;;;;;;5054556;28;20622;-52
2022/08/04 14:08:49;;;;;;;5.53;2.63;;;;;;;;;;5054804;28;20405;-52
2022/08/04 14:11:17;;;;;;;3.70;2.60;;;;;;;;;;5053980;28;20397;-52
2022/08/04 14:13:43;;;;;;;4.23;2.63;;;;;;;;;;5055011;28;20404;-52
2022/08/04 14:16:16;;;;;;;6.50;2.70;;;;;;;;;;5054563;28;20950;-52
2022/08/04 14:18:42;;;;;;;2.63;2.40;;;;;;;;;;5054662;28;20920;-52
2022/08/04 14:21:09;;;;;;;5.17;2.63;;;;;;;;;;5053845;28;20405;-52
2022/08/04 14:23:46;;;;;;;3.97;2.53;;;;;;;;;;5054529;28;20394;-52
2022/08/04 14:26:15;;;;;;;2.83;2.50;;;;;;;;;;5054387;28;20452;-52
2022/08/04 14:28:41;;;;;;;2.97;2.23;;;;;;;;;;5054332;28;20480;-52
2022/08/04 14:31:10;;;;;;;7.33;3.30;;;;;;;;;;5053702;28;20806;-52
2022/08/04 14:33:40;;;;;;;3.67;2.97;;;;;;;;;;5059352;28;20443;-53
2022/08/04 14:36:06;;;;;;;2.60;2.40;;;;;;;;;;5074255;28;20460;-52
2022/08/04 14:38:41;;;;;;;5.47;2.43;;;;;;;;;;5073286;28;20446;-53
2022/08/04 14:41:07;;;;;;;4.80;2.83;;;;;;;;;;5073467;28;20403;-52
2022/08/04 14:43:40;;;;;;;6.60;2.90;;;;;;;;;;5074072;28;20408;-52
2022/08/04 14:46:06;;;;;;;6.63;2.80;;;;;;;;;;5074014;28;20460;-53
2022/08/04 14:48:32;;;;;;;4.10;3.03;;;;;;;;;;5074146;28;20400;-52
2022/08/04 14:50:58;;;;;;;8.40;2.97;;;;;;;;;;5073374;28;20396;-52
2022/08/04 14:53:30;;;;;;;2.67;2.10;;;;;;;;;;5073884;28;20828;-53
2022/08/04 14:55:58;;;;;;;5.33;2.53;;;;;;;;;;5073901;28;20419;-52
2022/08/04 14:58:24;;;;;;;5.20;2.40;;;;;;;;;;5073821;28;20476;-53
2022/08/04 15:00:50;;;;;;;2.63;2.30;;;;;;;;;;5073368;28;20416;-52
2022/08/04 15:03:18;;;;;;;2.70;2.50;;;;;;;;;;5071004;28;20275;-52
2022/08/04 15:05:45;;;;;;;3.33;2.77;;;;;;;;;;5059824;28;20502;-53
2022/08/04 15:08:12;;;;;;;2.63;2.50;;;;;;;;;;5073634;28;20831;-52
2022/08/04 15:10:38;;;;;;;3.10;2.23;;;;;;;;;;5072837;28;20417;-52
2022/08/04 15:13:06;;;;;;;3.03;2.73;;;;;;;;;;5073665;28;20740;-53